Time;durP1;ratioP1;P1;durP2;ratioP2;P2;SDS_P1;SDS_P2;PMS_P1;PMS_P2;Temp;Humidity;BMP_temperature;BMP_pressure;BME280_temperature;BME280_humidity;BME280_pressure;Samples;Min_cycle;Max_cycle;Signal;HPM_P1;HPM_P2
2022/02/14 00:02:19;;;;;;;2.40;1.80;;;;;;;5.75;39.21;95200.34;5053516;28;20584;-79
2022/02/14 00:04:47;;;;;;;2.73;1.70;;;;;;;5.80;39.13;95195.56;5053789;28;20213;-81
2022/02/14 00:07:13;;;;;;;2.07;1.73;;;;;;;5.83;39.17;95197.81;5053324;28;20197;-81
2022/02/14 00:09:40;;;;;;;1.83;1.53;;;;;;;5.84;39.15;95194.28;5053718;28;20217;-80
2022/02/14 00:12:07;;;;;;;2.47;1.97;;;;;;;5.88;38.90;95200.69;5049141;28;20232;-80
2022/02/14 00:14:33;;;;;;;2.40;1.40;;;;;;;5.85;38.68;95194.13;5051175;28;20205;-81
2022/02/14 00:17:00;;;;;;;1.70;1.60;;;;;;;5.87;38.54;95194.78;5049763;28;20213;-81
2022/02/14 00:19:26;;;;;;;1.80;1.40;;;;;;;5.76;38.46;95186.63;5050921;28;20242;-80
2022/02/14 00:21:54;;;;;;;2.67;1.70;;;;;;;5.74;38.24;95185.97;5050194;28;20343;-81
2022/02/14 00:24:20;;;;;;;1.90;1.50;;;;;;;5.73;38.63;95187.75;5042770;28;20202;-80
2022/02/14 00:26:50;;;;;;;2.07;1.60;;;;;;;5.74;38.49;95186.78;5036353;28;20205;-81
2022/02/14 00:29:17;;;;;;;2.07;1.80;;;;;;;5.69;38.73;95177.97;5045890;28;20218;-81
2022/02/14 00:31:43;;;;;;;1.60;1.50;;;;;;;5.62;38.40;95177.78;5050146;28;20316;-80
2022/02/14 00:34:09;;;;;;;1.80;1.60;;;;;;;5.48;38.36;95176.66;5040830;28;20620;-80
2022/02/14 00:36:36;;;;;;;3.13;1.50;;;;;;;5.38;38.54;95172.63;5036190;28;20194;-81
2022/02/14 00:39:04;;;;;;;1.93;1.53;;;;;;;5.34;38.97;95168.78;5036486;28;20205;-81
2022/02/14 00:41:30;;;;;;;2.17;1.60;;;;;;;5.15;38.36;95173.19;5047591;28;20577;-79
2022/02/14 00:43:57;;;;;;;2.27;1.30;;;;;;;4.96;38.46;95163.22;5039204;28;20198;-81
2022/02/14 00:46:23;;;;;;;1.47;1.20;;;;;;;4.97;38.38;95169.13;5048806;28;20248;-80
2022/02/14 00:48:50;;;;;;;1.57;1.20;;;;;;;4.99;38.95;95162.13;5050168;28;20217;-80
2022/02/14 00:51:16;;;;;;;2.00;1.50;;;;;;;5.02;38.21;95162.59;5050708;28;20236;-80
2022/02/14 00:53:43;;;;;;;1.90;1.50;;;;;;;5.01;38.02;95163.53;5052347;28;20201;-80
2022/02/14 00:56:10;;;;;;;1.50;1.30;;;;;;;4.87;37.88;95156.47;5051987;28;20202;-80
2022/02/14 00:58:37;;;;;;;1.70;1.37;;;;;;;4.89;38.16;95149.47;5052544;28;20198;-80
2022/02/14 01:01:03;;;;;;;1.70;1.23;;;;;;;4.91;38.12;95144.22;5052280;28;20754;-81
2022/02/14 01:03:30;;;;;;;2.07;1.40;;;;;;;4.88;37.39;95147.06;5052874;28;20201;-82
2022/02/14 01:05:56;;;;;;;1.30;1.10;;;;;;;4.85;37.05;95138.75;5053083;28;20579;-79
2022/02/14 01:08:22;;;;;;;1.37;1.27;;;;;;;4.90;37.21;95135.75;5051753;28;20189;-80
2022/02/14 01:10:49;;;;;;;1.50;1.20;;;;;;;4.94;37.15;95131.16;5052931;28;20217;-81
2022/02/14 01:13:17;;;;;;;1.80;1.20;;;;;;;5.00;37.35;95133.09;5053182;28;20808;-81
2022/02/14 01:15:43;;;;;;;1.30;1.20;;;;;;;4.97;36.38;95139.31;5052948;28;20198;-81
2022/02/14 01:18:09;;;;;;;1.10;1.00;;;;;;;4.92;36.54;95127.97;5056536;28;20777;-81
2022/02/14 01:20:36;;;;;;;1.30;1.20;;;;;;;4.93;36.90;95134.66;5062268;28;20223;-80
2022/02/14 01:23:02;;;;;;;2.40;1.20;;;;;;;5.01;36.36;95134.69;5054296;28;20198;-82
2022/02/14 01:25:29;;;;;;;1.50;1.27;;;;;;;5.05;36.16;95126.56;5054068;28;20632;-80
2022/02/14 01:27:55;;;;;;;1.80;1.20;;;;;;;5.07;36.13;95128.97;5054101;28;20205;-80
2022/02/14 01:30:23;;;;;;;1.33;1.20;;;;;;;5.10;35.44;95123.56;5053467;28;20225;-82
2022/02/14 01:32:49;;;;;;;1.40;1.30;;;;;;;5.10;35.54;95119.25;5053071;28;20225;-81
2022/02/14 01:35:15;;;;;;;1.20;1.00;;;;;;;5.14;35.08;95117.22;5052406;28;20201;-80
2022/02/14 01:37:42;;;;;;;1.43;1.20;;;;;;;5.23;35.21;95118.81;5053738;28;20202;-81
2022/02/14 01:40:12;;;;;;;1.60;1.30;;;;;;;5.26;34.70;95115.97;5052991;28;20217;-81
2022/02/14 01:42:39;;;;;;;1.43;1.23;;;;;;;5.29;34.76;95118.22;5052240;28;20221;-81
2022/02/14 01:45:08;;;;;;;1.30;1.20;;;;;;;5.32;34.90;95109.44;5052359;28;20216;-81
2022/02/14 01:47:35;;;;;;;1.20;1.10;;;;;;;5.36;34.63;95098.78;5051936;28;20206;-81
2022/02/14 01:50:03;;;;;;;1.27;1.17;;;;;;;5.38;34.89;95106.28;5051856;28;20310;-81
2022/02/14 01:52:30;;;;;;;1.50;1.00;;;;;;;5.35;34.86;95099.72;5052145;28;20312;-80
2022/02/14 01:54:58;;;;;;;1.30;1.10;;;;;;;5.35;35.03;95088.72;5052734;28;20197;-80
2022/02/14 01:57:25;;;;;;;1.30;1.20;;;;;;;5.41;34.66;95088.06;5052867;28;20194;-80
2022/02/14 01:59:52;;;;;;;1.90;1.27;;;;;;;5.44;34.57;95080.09;5052661;28;20308;-79
2022/02/14 02:02:18;;;;;;;2.33;1.20;;;;;;;5.41;34.47;95082.97;5051220;28;20229;-79
2022/02/14 02:04:47;;;;;;;1.50;1.30;;;;;;;5.41;34.88;95083.75;5052123;28;20649;-81
2022/02/14 02:07:14;;;;;;;1.20;1.10;;;;;;;5.39;34.67;95080.56;5051567;28;20243;-81
2022/02/14 02:09:42;;;;;;;1.30;1.20;;;;;;;5.35;34.69;95076.75;5051367;28;20217;-82
2022/02/14 02:12:26;;;;;;;2.33;1.20;;;;;;;5.38;34.28;95075.66;5051230;28;20647;-81
2022/02/14 02:14:54;;;;;;;1.33;1.10;;;;;;;5.37;34.74;95072.28;5047160;28;20216;-80
2022/02/14 02:17:23;;;;;;;1.27;1.17;;;;;;;5.37;34.76;95063.84;5051564;28;20603;-81
2022/02/14 02:19:52;;;;;;;1.40;1.30;;;;;;;5.49;34.36;95067.66;5051714;28;20236;-82
2022/02/14 02:22:18;;;;;;;1.20;1.10;;;;;;;5.50;34.16;95061.59;5051143;28;20293;-82
2022/02/14 02:24:49;;;;;;;1.50;1.40;;;;;;;5.49;33.89;95065.91;5051109;28;20193;-82
2022/02/14 02:27:16;;;;;;;1.33;1.23;;;;;;;5.38;34.20;95055.22;5051446;28;20193;-80
2022/02/14 02:29:43;;;;;;;1.70;1.60;;;;;;;5.29;33.59;95046.75;5051597;28;20263;-82
2022/02/14 02:32:11;;;;;;;1.30;1.20;;;;;;;5.37;33.55;95041.66;5050851;28;20225;-82
2022/02/14 02:34:39;;;;;;;1.50;0.90;;;;;;;5.35;33.31;95040.22;5045735;28;20194;-82
2022/02/14 02:37:07;;;;;;;1.20;1.10;;;;;;;5.44;33.30;95045.16;5051023;28;20243;-82
2022/02/14 02:39:33;;;;;;;1.30;1.20;;;;;;;5.50;32.83;95033.53;5051476;28;20696;-82
2022/02/14 02:42:02;;;;;;;1.10;1.00;;;;;;;5.58;32.89;95030.19;5051213;28;20252;-80
2022/02/14 02:44:29;;;;;;;1.17;1.07;;;;;;;5.59;33.08;95032.56;5050900;28;20197;-82
2022/02/14 02:46:56;;;;;;;1.20;1.10;;;;;;;5.65;32.98;95033.69;5052001;28;20255;-82
2022/02/14 02:49:23;;;;;;;1.20;1.10;;;;;;;5.67;32.43;95036.88;5051398;28;20229;-81
2022/02/14 02:51:52;;;;;;;1.20;1.00;;;;;;;5.70;32.38;95032.25;5051203;28;20213;-82
2022/02/14 02:54:19;;;;;;;2.00;1.30;;;;;;;5.71;32.39;95030.50;5050686;28;20269;-81
2022/02/14 02:56:48;;;;;;;2.50;1.10;;;;;;;5.68;32.34;95031.63;5051356;28;20679;-82
2022/02/14 02:59:17;;;;;;;1.60;1.00;;;;;;;5.70;32.55;95023.78;5051025;28;20218;-81
2022/02/14 03:01:44;;;;;;;1.30;0.97;;;;;;;5.63;31.97;95020.28;5050667;28;20213;-81
2022/02/14 03:04:12;;;;;;;1.50;0.97;;;;;;;5.60;32.04;95023.16;5050853;28;20190;-83
2022/02/14 03:06:39;;;;;;;1.73;1.00;;;;;;;5.53;31.92;95025.56;5051633;28;20197;-82
2022/02/14 03:09:06;;;;;;;1.33;1.20;;;;;;;5.51;30.96;95020.59;5050933;28;20649;-82
2022/02/14 03:11:34;;;;;;;1.00;0.97;;;;;;;5.56;31.73;95017.59;5050843;28;20229;-81
2022/02/14 03:14:01;;;;;;;1.20;1.10;;;;;;;5.48;31.38;95013.25;5051034;28;20201;-82
2022/02/14 03:16:29;;;;;;;1.20;1.10;;;;;;;5.53;31.35;95020.44;5050559;28;20698;-81
2022/02/14 03:18:55;;;;;;;1.20;1.00;;;;;;;5.51;31.18;95010.38;5051933;28;20201;-82
2022/02/14 03:21:22;;;;;;;1.20;1.10;;;;;;;5.59;31.47;95022.34;5053886;28;20236;-80
2022/02/14 03:23:50;;;;;;;1.20;1.10;;;;;;;5.63;31.08;95010.84;5048892;28;20202;-80
2022/02/14 03:26:19;;;;;;;1.13;1.00;;;;;;;5.61;30.97;95009.41;5049401;28;20197;-80
2022/02/14 03:28:46;;;;;;;1.50;1.20;;;;;;;5.68;31.00;95007.84;5052845;28;20572;-81
2022/02/14 03:31:12;;;;;;;1.47;1.10;;;;;;;5.65;31.33;95008.16;5049768;28;20229;-82
2022/02/14 03:33:43;;;;;;;1.63;1.10;;;;;;;5.61;30.63;95006.88;5051157;28;20194;-80
2022/02/14 03:36:11;;;;;;;1.30;1.03;;;;;;;5.68;31.29;95008.63;5050640;28;20201;-81
2022/02/14 03:38:38;;;;;;;1.10;1.00;;;;;;;5.68;31.30;94995.88;5040694;28;20190;-81
2022/02/14 03:41:05;;;;;;;1.20;1.10;;;;;;;5.71;31.13;94987.09;5048158;28;20230;-79
2022/02/14 03:43:31;;;;;;;1.40;1.30;;;;;;;5.73;31.20;94988.53;5060365;28;20190;-80
2022/02/14 03:45:58;;;;;;;1.17;1.07;;;;;;;5.75;31.03;94988.38;5055903;28;20221;-81
2022/02/14 03:48:25;;;;;;;1.13;1.03;;;;;;;5.73;30.53;94992.84;5055239;28;20306;-79
2022/02/14 03:50:53;;;;;;;1.07;1.00;;;;;;;5.76;30.98;94993.31;5054616;28;20574;-80
2022/02/14 03:53:20;;;;;;;1.43;1.07;;;;;;;5.66;30.77;94989.31;5055364;28;20603;-80
2022/02/14 03:55:46;;;;;;;1.30;1.20;;;;;;;5.60;30.92;94993.31;5055566;28;20200;-81
2022/02/14 03:58:13;;;;;;;1.20;1.10;;;;;;;5.58;31.23;94987.56;5055147;28;20202;-82
2022/02/14 04:00:39;;;;;;;1.13;1.03;;;;;;;5.62;31.06;94993.13;5054693;28;20229;-80
2022/02/14 04:03:06;;;;;;;1.20;1.10;;;;;;;5.63;31.43;94998.09;5055224;28;20217;-81
2022/02/14 04:05:32;;;;;;;1.20;1.10;;;;;;;5.62;31.16;94993.13;5054232;28;20193;-80
2022/02/14 04:08:00;;;;;;;2.30;1.30;;;;;;;5.54;31.44;94983.75;5054868;28;20202;-80
2022/02/14 04:10:28;;;;;;;2.23;1.20;;;;;;;5.46;31.50;94984.53;5053769;28;20224;-82
2022/02/14 04:12:55;;;;;;;1.83;1.30;;;;;;;5.41;31.33;94979.09;5054014;28;20229;-81
2022/02/14 04:15:22;;;;;;;1.30;1.00;;;;;;;5.44;31.51;94968.56;5053622;28;20614;-82
2022/02/14 04:17:49;;;;;;;1.37;1.20;;;;;;;5.40;31.31;94971.59;5054215;28;20212;-81
2022/02/14 04:20:17;;;;;;;1.20;1.00;;;;;;;5.49;31.40;94970.66;5053643;28;20275;-81
2022/02/14 04:22:43;;;;;;;2.00;1.10;;;;;;;5.45;31.46;94959.97;5047439;28;20218;-80
2022/02/14 04:25:13;;;;;;;1.00;0.90;;;;;;;5.54;31.77;94959.00;5053765;28;20197;-81
2022/02/14 04:27:41;;;;;;;1.40;1.30;;;;;;;5.52;31.32;94955.81;5054177;28;20595;-81
2022/02/14 04:30:09;;;;;;;1.47;1.10;;;;;;;5.45;31.03;94957.41;5052659;28;20222;-79
2022/02/14 04:32:36;;;;;;;1.23;1.13;;;;;;;5.44;31.29;94953.25;5051575;28;20855;-81
2022/02/14 04:35:03;;;;;;;3.17;1.40;;;;;;;5.47;31.79;94944.50;5053730;28;20202;-81
2022/02/14 04:37:29;;;;;;;1.83;1.37;;;;;;;5.44;31.44;94943.06;5053514;28;20197;-81
2022/02/14 04:39:56;;;;;;;1.17;1.07;;;;;;;5.44;31.74;94947.34;5053101;28;20224;-80
2022/02/14 04:42:23;;;;;;;2.10;1.30;;;;;;;5.35;31.66;94938.13;5051705;28;20228;-81
2022/02/14 04:44:50;;;;;;;1.20;1.10;;;;;;;5.44;31.80;94939.69;5052735;28;20201;-81
2022/02/14 04:47:17;;;;;;;1.23;1.13;;;;;;;5.44;31.55;94932.03;5052571;28;20263;-80
2022/02/14 04:49:44;;;;;;;1.30;1.20;;;;;;;5.39;31.94;94931.72;5048088;28;20488;-82
2022/02/14 04:52:10;;;;;;;1.10;1.00;;;;;;;5.39;31.90;94927.41;5050611;28;20225;-81
2022/02/14 04:54:37;;;;;;;2.13;1.00;;;;;;;5.41;31.96;94928.06;5052586;28;20214;-80
2022/02/14 04:57:04;;;;;;;1.30;1.20;;;;;;;5.38;31.42;94930.94;5040432;28;20201;-81
2022/02/14 04:59:32;;;;;;;1.90;1.40;;;;;;;5.45;31.80;94934.44;5036710;28;20237;-79
2022/02/14 05:01:59;;;;;;;1.20;1.10;;;;;;;5.48;31.63;94930.75;5042718;28;20268;-81
2022/02/14 05:04:25;;;;;;;1.40;1.30;;;;;;;5.39;31.06;94936.81;5048137;28;20197;-80
2022/02/14 05:06:52;;;;;;;1.93;1.30;;;;;;;5.42;31.66;94939.06;5050231;28;20237;-79
2022/02/14 05:09:19;;;;;;;3.10;1.20;;;;;;;5.48;31.68;94933.31;5048693;28;20225;-81
2022/02/14 05:11:45;;;;;;;0.93;0.93;;;;;;;5.55;31.52;94936.84;5048899;28;20229;-81
2022/02/14 05:14:12;;;;;;;1.80;1.50;;;;;;;5.56;31.71;94943.53;5049266;28;20697;-80
2022/02/14 05:16:40;;;;;;;1.43;1.23;;;;;;;5.65;31.93;94940.00;5051248;28;20198;-81
2022/02/14 05:19:06;;;;;;;1.67;1.37;;;;;;;5.68;31.84;94939.69;5053029;28;20255;-80
2022/02/14 05:21:33;;;;;;;1.40;1.23;;;;;;;5.63;31.54;94938.56;5052122;28;20221;-81
2022/02/14 05:23:59;;;;;;;1.50;1.30;;;;;;;5.63;31.27;94931.69;5052386;28;20665;-80
2022/02/14 05:26:26;;;;;;;1.70;1.30;;;;;;;5.62;31.73;94921.66;5051663;28;20484;-81
2022/02/14 05:28:55;;;;;;;1.20;1.10;;;;;;;5.64;32.23;94927.41;5052565;28;20676;-80
2022/02/14 05:31:22;;;;;;;1.53;1.20;;;;;;;5.58;32.02;94928.06;5045996;28;20237;-80
2022/02/14 05:33:50;;;;;;;1.33;1.20;;;;;;;5.60;32.01;94932.03;5045552;28;20740;-81
2022/02/14 05:36:18;;;;;;;1.27;1.17;;;;;;;5.58;31.66;94933.94;5045846;28;20244;-79
2022/02/14 05:38:44;;;;;;;2.40;1.10;;;;;;;5.59;31.89;94937.28;5043787;28;20194;-81
2022/02/14 05:41:11;;;;;;;1.90;1.27;;;;;;;5.57;32.00;94934.13;5051005;28;20229;-81
2022/02/14 05:43:37;;;;;;;1.17;1.07;;;;;;;5.54;31.72;94930.94;5051124;28;20601;-80
2022/02/14 05:46:04;;;;;;;2.00;1.20;;;;;;;5.59;32.19;94938.09;5052207;28;20263;-81
2022/02/14 05:48:30;;;;;;;1.80;1.33;;;;;;;5.52;32.19;94934.59;5052366;28;20217;-81
2022/02/14 05:50:58;;;;;;;1.20;1.10;;;;;;;5.53;31.71;94934.44;5051651;28;20241;-83
2022/02/14 05:53:24;;;;;;;1.60;1.37;;;;;;;5.56;32.26;94935.88;5050250;28;20197;-82
2022/02/14 05:55:51;;;;;;;2.07;1.40;;;;;;;5.54;32.40;94935.25;5052602;28;20204;-81
2022/02/14 05:58:17;;;;;;;1.53;1.30;;;;;;;5.57;31.82;94936.69;5052662;28;20209;-82
2022/02/14 06:00:43;;;;;;;4.27;1.47;;;;;;;5.60;32.04;94934.56;5045529;28;20274;-81
2022/02/14 06:03:10;;;;;;;1.20;1.10;;;;;;;5.54;32.24;94930.94;5043591;28;20230;-81
2022/02/14 06:05:36;;;;;;;1.60;1.30;;;;;;;5.57;32.19;94927.25;5043118;28;20205;-82
2022/02/14 06:08:05;;;;;;;1.20;1.10;;;;;;;5.55;32.55;94922.31;5041906;28;20205;-80
2022/02/14 06:10:31;;;;;;;1.63;1.30;;;;;;;5.53;32.31;94929.34;5053276;28;20225;-81
2022/02/14 06:12:58;;;;;;;3.23;1.13;;;;;;;5.52;32.32;94920.06;5053979;28;20229;-81
2022/02/14 06:15:25;;;;;;;1.53;1.33;;;;;;;5.57;32.71;94929.00;5053701;28;20204;-81
2022/02/14 06:17:52;;;;;;;2.83;1.30;;;;;;;5.62;32.52;94925.00;5053695;28;20210;-82
2022/02/14 06:20:18;;;;;;;1.70;1.40;;;;;;;5.64;32.60;94924.84;5053689;28;20251;-81
2022/02/14 06:22:45;;;;;;;1.70;1.13;;;;;;;5.66;32.56;94922.91;5052492;28;20233;-80
2022/02/14 06:25:13;;;;;;;1.30;1.20;;;;;;;5.71;32.84;94923.25;5053926;28;20206;-81
2022/02/14 06:27:39;;;;;;;2.83;1.27;;;;;;;5.69;32.34;94928.50;5053709;28;20212;-81
2022/02/14 06:30:06;;;;;;;2.10;1.30;;;;;;;5.73;32.58;94934.88;5053475;28;20221;-81
2022/02/14 06:32:33;;;;;;;1.73;1.20;;;;;;;5.71;32.95;94930.91;5052853;28;20237;-82
2022/02/14 06:35:02;;;;;;;1.43;1.10;;;;;;;5.79;32.27;94933.41;5053091;28;20227;-81
2022/02/14 06:37:29;;;;;;;1.60;1.30;;;;;;;5.87;32.79;94936.78;5053369;28;20304;-80
2022/02/14 06:39:55;;;;;;;2.37;1.37;;;;;;;5.90;33.12;94935.69;5052716;28;20221;-81
2022/02/14 06:42:23;;;;;;;1.57;1.10;;;;;;;5.94;32.38;94928.50;5051763;28;20777;-81
2022/02/14 06:44:49;;;;;;;3.83;2.80;;;;;;;5.99;32.96;94928.78;5052491;28;20201;-81
2022/02/14 06:47:16;;;;;;;2.43;1.77;;;;;;;5.99;32.66;94931.31;5052784;28;20637;-80
2022/02/14 06:49:42;;;;;;;4.40;1.50;;;;;;;6.04;32.82;94936.75;5051873;28;20221;-82
2022/02/14 06:52:09;;;;;;;2.77;1.67;;;;;;;6.09;32.87;94929.41;5051578;28;20244;-81
2022/02/14 06:54:35;;;;;;;2.00;1.47;;;;;;;6.09;32.57;94929.41;5054036;28;20197;-80
2022/02/14 06:57:02;;;;;;;2.77;1.50;;;;;;;6.16;32.71;94923.44;5057018;28;20576;-81
2022/02/14 06:59:30;;;;;;;5.03;1.60;;;;;;;6.32;32.45;94924.38;5056786;28;20232;-81
2022/02/14 07:01:56;;;;;;;2.27;1.50;;;;;;;6.53;32.10;94929.69;5056158;28;20275;-81
2022/02/14 07:04:22;;;;;;;7.13;1.90;;;;;;;6.64;32.08;94926.75;5056116;28;20259;-81
2022/02/14 07:06:49;;;;;;;8.00;1.73;;;;;;;6.97;31.47;94917.09;5056246;28;20205;-80
2022/02/14 07:09:15;;;;;;;3.07;1.77;;;;;;;7.35;30.91;94917.94;5056217;28;20212;-81
2022/02/14 07:11:44;;;;;;;2.07;1.60;;;;;;;7.68;30.68;94922.78;5055924;28;20877;-81
2022/02/14 07:14:11;;;;;;;4.30;1.50;;;;;;;7.69;30.27;94911.56;5056901;28;20204;-81
2022/02/14 07:16:39;;;;;;;2.00;1.77;;;;;;;7.76;30.73;94920.13;5056605;28;20557;-80
2022/02/14 07:19:06;;;;;;;1.40;1.30;;;;;;;7.59;29.98;94912.59;5055632;28;20247;-81
2022/02/14 07:21:32;;;;;;;5.60;2.03;;;;;;;7.68;30.75;94917.66;5055590;28;20229;-81
2022/02/14 07:23:59;;;;;;;2.73;1.90;;;;;;;7.91;30.54;94923.50;5052307;28;20216;-79
2022/02/14 07:26:25;;;;;;;3.43;1.60;;;;;;;7.82;30.29;94922.00;5051166;28;20252;-81
2022/02/14 07:28:52;;;;;;;2.33;1.77;;;;;;;8.05;30.43;94915.03;5055838;28;20615;-80
2022/02/14 07:31:18;;;;;;;2.33;1.40;;;;;;;8.31;29.65;94914.56;5054971;28;20287;-80
2022/02/14 07:33:46;;;;;;;2.00;1.50;;;;;;;8.11;29.63;94922.00;5055785;28;20283;-82
2022/02/14 07:36:13;;;;;;;4.70;1.80;;;;;;;7.97;30.31;94917.69;5055490;28;20232;-81
2022/02/14 07:38:39;;;;;;;5.33;2.00;;;;;;;7.85;30.45;94916.53;5056143;28;20216;-82
2022/02/14 07:41:06;;;;;;;7.40;1.93;;;;;;;7.86;30.30;94913.78;5054908;28;20230;-81
2022/02/14 07:43:32;;;;;;;3.13;1.60;;;;;;;7.94;30.91;94913.69;5055056;28;20215;-81
2022/02/14 07:45:59;;;;;;;2.63;1.40;;;;;;;8.13;30.01;94911.56;5054471;28;20619;-82
2022/02/14 07:48:25;;;;;;;2.10;1.70;;;;;;;8.43;30.12;94912.38;5055412;28;20210;-82
2022/02/14 07:50:53;;;;;;;3.13;1.60;;;;;;;8.46;29.83;94914.59;5054514;28;20278;-80
2022/02/14 07:53:20;;;;;;;2.13;1.60;;;;;;;8.36;30.30;94909.72;5055268;28;20259;-81
2022/02/14 07:55:46;;;;;;;5.73;2.00;;;;;;;8.48;30.27;94904.91;5055146;28;20213;-81
2022/02/14 07:58:13;;;;;;;2.67;1.50;;;;;;;8.63;29.33;94900.56;5056094;28;20209;-81
2022/02/14 08:00:41;;;;;;;2.47;1.73;;;;;;;8.56;29.76;94902.25;5054789;28;20229;-80
2022/02/14 08:03:08;;;;;;;3.63;1.43;;;;;;;8.39;29.36;94901.69;5056360;28;20207;-81
2022/02/14 08:05:34;;;;;;;3.17;1.83;;;;;;;8.24;29.29;94901.69;5055396;28;20231;-81
2022/02/14 08:08:02;;;;;;;3.90;1.63;;;;;;;8.60;29.76;94895.81;5055357;28;20198;-80
2022/02/14 08:10:28;;;;;;;5.20;1.70;;;;;;;8.74;28.97;94886.47;5054993;28;20229;-80
2022/02/14 08:12:55;;;;;;;2.57;1.73;;;;;;;8.73;29.60;94890.00;5054851;28;20229;-79
2022/02/14 08:15:22;;;;;;;2.10;1.63;;;;;;;9.07;28.72;94890.13;5055320;28;20228;-80
2022/02/14 08:17:49;;;;;;;5.60;1.60;;;;;;;8.98;28.90;94894.63;5055249;28;20198;-81
2022/02/14 08:20:15;;;;;;;3.47;1.60;;;;;;;8.90;28.95;94893.91;5054701;28;20249;-80
2022/02/14 08:22:42;;;;;;;2.83;1.80;;;;;;;8.86;29.19;94887.56;5054816;28;20240;-81
2022/02/14 08:25:10;;;;;;;6.87;1.90;;;;;;;8.92;29.85;94894.53;5054478;28;20201;-80
2022/02/14 08:27:37;;;;;;;5.13;1.87;;;;;;;9.68;28.37;94892.97;5062053;28;20189;-79
2022/02/14 08:30:04;;;;;;;5.87;1.73;;;;;;;9.69;28.64;94894.56;5073698;28;20248;-80
2022/02/14 08:32:31;;;;;;;5.83;1.50;;;;;;;9.61;28.45;94882.69;5059560;28;20228;-81
2022/02/14 08:34:57;;;;;;;3.03;1.80;;;;;;;10.36;28.09;94881.13;5055226;28;20205;-81
2022/02/14 08:37:24;;;;;;;5.23;1.60;;;;;;;10.76;27.50;94878.69;5056208;28;20205;-81
2022/02/14 08:39:51;;;;;;;4.90;1.70;;;;;;;10.84;26.62;94886.22;5055437;28;20244;-82
2022/02/14 08:42:19;;;;;;;2.77;1.50;;;;;;;10.61;26.92;94881.38;5055238;28;20260;-80
2022/02/14 08:44:45;;;;;;;2.47;1.60;;;;;;;11.04;27.19;94876.72;5056088;28;20205;-81
2022/02/14 08:47:13;;;;;;;2.20;1.50;;;;;;;11.56;26.11;94875.16;5054832;28;20268;-81
2022/02/14 08:49:40;;;;;;;2.60;1.67;;;;;;;12.00;25.65;94877.91;5055396;28;20225;-81
2022/02/14 08:52:07;;;;;;;1.87;1.57;;;;;;;12.04;25.56;94868.75;5054551;28;20222;-81
2022/02/14 08:54:33;;;;;;;3.30;1.77;;;;;;;11.72;26.20;94874.75;5055384;28;20240;-81
2022/02/14 08:57:00;;;;;;;2.07;1.50;;;;;;;11.16;25.70;94876.97;5054725;28;20202;-80
2022/02/14 08:59:28;;;;;;;3.13;2.13;;;;;;;10.81;26.98;94877.09;5055154;28;20709;-82
2022/02/14 09:01:56;;;;;;;2.27;1.63;;;;;;;10.51;26.54;94868.91;5054525;28;20225;-80
2022/02/14 09:04:22;;;;;;;3.03;1.67;;;;;;;10.57;27.26;94878.44;5053943;28;20197;-80
2022/02/14 09:06:49;;;;;;;2.07;1.80;;;;;;;11.00;27.15;94881.47;5054378;28;20201;-81
2022/02/14 09:09:16;;;;;;;2.90;1.73;;;;;;;11.62;26.48;94870.00;5052373;28;20201;-80
2022/02/14 09:11:42;;;;;;;3.37;1.87;;;;;;;12.02;25.86;94875.91;5053738;28;20221;-81
2022/02/14 09:14:09;;;;;;;2.23;1.57;;;;;;;12.18;24.98;94873.88;5054699;28;20353;-81
2022/02/14 09:16:37;;;;;;;3.90;1.40;;;;;;;12.36;24.72;94863.69;5053936;28;20886;-82
2022/02/14 09:19:03;;;;;;;3.20;1.47;;;;;;;12.59;24.95;94858.03;5054669;28;20250;-82
2022/02/14 09:21:30;;;;;;;3.13;1.43;;;;;;;12.85;24.46;94860.47;5054180;28;20221;-80
2022/02/14 09:23:57;;;;;;;3.57;1.60;;;;;;;12.92;24.47;94861.22;5050702;28;20205;-80
2022/02/14 09:26:23;;;;;;;2.03;1.53;;;;;;;12.78;24.67;94857.13;5052046;28;20205;-81
2022/02/14 09:28:50;;;;;;;1.83;1.40;;;;;;;12.91;24.74;94853.66;5042809;28;20213;-81
2022/02/14 09:31:16;;;;;;;3.23;1.63;;;;;;;13.05;24.62;94848.22;5053464;28;20316;-81
2022/02/14 09:33:44;;;;;;;4.00;1.80;;;;;;;13.12;24.26;94854.13;5054494;28;20608;-82
2022/02/14 09:36:12;;;;;;;1.87;1.47;;;;;;;13.31;24.34;94847.25;5054491;28;20680;-81
2022/02/14 09:38:38;;;;;;;2.83;1.70;;;;;;;13.18;23.66;94849.94;5052859;28;20239;-81
2022/02/14 09:41:05;;;;;;;1.70;1.60;;;;;;;13.25;24.13;94847.31;5053514;28;20237;-80
2022/02/14 09:43:34;;;;;;;3.00;1.63;;;;;;;13.37;23.38;94854.16;5053956;28;20691;-81
2022/02/14 09:46:00;;;;;;;2.70;1.70;;;;;;;13.43;23.42;94837.81;5052331;28;20215;-81
2022/02/14 09:48:32;;;;;;;5.73;1.77;;;;;;;13.46;23.78;94847.72;5053875;28;20205;-80
2022/02/14 09:51:00;;;;;;;2.00;1.80;;;;;;;13.38;23.84;94842.03;5049035;28;20723;-80
2022/02/14 09:53:27;;;;;;;3.10;1.47;;;;;;;13.44;23.70;94841.97;5047868;28;20241;-81
2022/02/14 09:55:53;;;;;;;1.83;1.30;;;;;;;13.52;23.20;94843.50;5052593;28;20248;-81
2022/02/14 09:58:19;;;;;;;2.60;1.50;;;;;;;13.76;23.87;94844.47;5052811;28;20201;-81
2022/02/14 10:00:46;;;;;;;1.57;1.47;;;;;;;13.69;23.63;94844.53;5053129;28;20229;-81
2022/02/14 10:03:15;;;;;;;1.40;1.30;;;;;;;13.80;24.05;94851.59;5053499;28;20201;-82
2022/02/14 10:05:43;;;;;;;1.90;1.60;;;;;;;13.92;23.22;94841.31;5053547;28;20197;-81
2022/02/14 10:08:11;;;;;;;2.93;1.40;;;;;;;13.92;23.13;94843.91;5053499;28;20687;-80
2022/02/14 10:10:39;;;;;;;1.83;1.37;;;;;;;13.82;23.06;94844.41;5052897;28;20229;-81
2022/02/14 10:13:06;;;;;;;4.10;1.80;;;;;;;13.78;22.64;94838.06;5053540;28;20275;-81
2022/02/14 10:15:34;;;;;;;2.83;1.30;;;;;;;14.07;22.71;94844.34;5053495;28;20205;-81
2022/02/14 10:18:01;;;;;;;1.67;1.40;;;;;;;14.00;23.08;94838.44;5053208;28;20669;-82
2022/02/14 10:20:30;;;;;;;1.60;1.20;;;;;;;13.90;23.40;94840.75;5053350;28;20244;-80
2022/02/14 10:22:59;;;;;;;2.80;1.30;;;;;;;13.83;23.45;94835.66;5053555;28;20225;-81
2022/02/14 10:25:32;;;;;;;4.50;1.53;;;;;;;13.51;23.95;94830.78;5053878;28;20233;-81
2022/02/14 10:28:19;;;;;;;2.13;1.30;;;;;;;13.26;24.46;94830.81;5053285;28;20197;-80
2022/02/14 10:30:56;;;;;;;2.90;1.77;;;;;;;13.18;24.67;94833.63;5056609;28;20221;-80
2022/02/14 10:33:23;;;;;;;2.57;1.47;;;;;;;13.13;24.41;94839.41;5056997;28;20691;-82
2022/02/14 10:35:50;;;;;;;4.20;2.00;;;;;;;13.06;24.61;94839.47;5056956;28;20514;-82
2022/02/14 10:38:21;;;;;;;2.57;1.43;;;;;;;12.89;24.79;94833.22;5057084;28;20553;-81
2022/02/14 10:40:49;;;;;;;3.83;1.53;;;;;;;12.67;25.34;94832.75;5056453;28;20221;-80
2022/02/14 10:43:25;;;;;;;2.90;1.40;;;;;;;12.60;25.05;94824.25;5056664;28;20672;-80
2022/02/14 10:45:54;;;;;;;3.63;1.37;;;;;;;12.73;24.97;94825.94;5056138;28;20291;-81
2022/02/14 10:48:34;;;;;;;3.87;1.40;;;;;;;12.76;25.87;94821.16;5057224;28;20581;-80
2022/02/14 10:51:01;;;;;;;4.10;1.60;;;;;;;12.66;25.14;94810.50;5056533;28;20777;-81
2022/02/14 10:53:27;;;;;;;1.83;1.57;;;;;;;12.70;25.86;94810.91;5068471;28;20229;-80
2022/02/14 10:55:58;;;;;;;2.33;1.70;;;;;;;12.76;25.73;94810.84;5069859;28;20210;-81
2022/02/14 10:58:27;;;;;;;4.17;1.60;;;;;;;12.72;25.56;94811.44;5058188;28;20275;-80
2022/02/14 11:00:54;;;;;;;5.23;1.40;;;;;;;12.72;25.74;94807.09;5057404;28;20271;-80
2022/02/14 11:03:21;;;;;;;5.13;1.40;;;;;;;12.70;25.67;94798.75;5056960;28;20208;-81
2022/02/14 11:05:48;;;;;;;2.77;1.67;;;;;;;12.99;26.16;94805.13;5057340;28;20196;-82
2022/02/14 11:08:16;;;;;;;5.20;1.37;;;;;;;13.42;25.35;94796.66;5057038;28;20201;-81
2022/02/14 11:10:44;;;;;;;5.57;1.50;;;;;;;13.72;25.29;94791.56;5057241;28;20221;-80
2022/02/14 11:13:13;;;;;;;2.70;1.57;;;;;;;13.97;24.83;94792.28;5057366;28;20240;-81
2022/02/14 11:15:41;;;;;;;4.27;1.50;;;;;;;14.20;24.89;94788.25;5056239;28;20583;-81
2022/02/14 11:18:13;;;;;;;2.43;1.60;;;;;;;14.37;24.16;94784.03;5056360;28;20205;-81
2022/02/14 11:20:40;;;;;;;1.27;1.17;;;;;;;14.45;23.87;94783.75;5054965;28;20226;-81
2022/02/14 11:23:09;;;;;;;2.10;1.40;;;;;;;14.50;23.95;94781.31;5056402;28;20202;-81
2022/02/14 11:25:43;;;;;;;1.70;1.30;;;;;;;14.39;23.65;94785.41;5055933;28;20201;-81
2022/02/14 11:28:18;;;;;;;3.63;1.63;;;;;;;14.34;23.69;94780.09;5052575;28;20735;-81
2022/02/14 11:30:47;;;;;;;2.27;1.33;;;;;;;14.52;24.16;94772.31;5051975;28;20624;-81
2022/02/14 11:33:20;;;;;;;4.10;1.43;;;;;;;14.76;24.14;94769.78;5054114;28;20225;-81
2022/02/14 11:35:59;;;;;;;2.60;1.40;;;;;;;14.72;23.83;94761.66;5054695;28;20205;-80
2022/02/14 11:38:41;;;;;;;3.97;1.53;;;;;;;14.66;24.26;94761.75;5055709;28;20246;-81
2022/02/14 11:41:30;;;;;;;4.33;1.43;;;;;;;14.70;24.11;94745.53;5054653;28;20283;-80